Tide Charts & Local Weather | Sea Star Realty

You are here

Myrtle Beach Area Weather

Myrtle Beach offers a warm, temperate environment that’s perfect for enjoying the beach. May through August are the most popular travel dates with hot, sunny weather. The humidity picks up a bit in July and August, with a little more rainfall to keep everything green. Winters at Myrtle Beach are mild, with weather that is still warm enough to enjoy strolls on the beach, golfing and much more.  

Myrtle Beach's 10 Day Weather Forecast

Month Average High Average Low
January 56° 38°
February 59° 41°
March 65° 47°
April 73° 55°
May 79° 63°
June 85° 70°
July 88° 74°
August 87° 73°
September 83° 68°
October 75° 57°
November 67° 48°
December 60° 41°

Myrtle Beach Area Tide Charts

US Harbors is your best source for Myrtle Beach area tide charts. These tide charts are taken from Pawley's Island Pier. If you're in Murrells Inlet, you'll want to subtract 58 minutes from the high and 90 minutes for the low.

May 2020

Date High Low Sun Moon
AM ft PM ft AM ft PM ft Rise Set
1 Fri 2:19 5.3 3:07 4.7 8:52 0.7 9:02 0.7 6:26 8:00 First Quarter
2 Sat 3:19 5.4 4:07 5.2 9:57 0.5 10:14 0.5 6:25 8:01 Waxing Gibbous
3 Sun 4:20 5.6 5:05 5.8 10:56 0.3 11:18 0.2 6:24 8:02 Waxing Gibbous
4 Mon 5:19 5.8 5:59 6.3 11:48 -0.1     6:23 8:03 Waxing Gibbous
5 Tue 6:15 5.8 6:52 6.6 12:16 -0.2 12:38 -0.3 6:22 8:03 Full Moon
6 Wed 7:09 5.8 7:44 6.8 1:11 -0.5 1:28 -0.5 6:21 8:04 Full Moon
7 Thu 8:02 5.7 8:34 6.8 2:05 -0.7 2:18 -0.6 6:20 8:05 Full Moon
8 Fri 8:53 5.5 9:25 6.6 2:58 -0.8 3:08 -0.7 6:19 8:06 Full Moon
9 Sat 9:44 5.2 10:16 6.3 3:48 -0.7 3:57 -0.5 6:18 8:06 Waning Gibbous
10 Sun 10:36 4.8 11:10 5.8 4:38 -0.5 4:46 -0.3 6:18 8:07 Waning Gibbous
11 Mon 11:33 4.5     5:29 -0.2 5:37 0.0 6:17 8:08 Waning Gibbous
12 Tue 12:09 5.5 12:34 4.4 6:22 0.2 6:31 0.4 6:16 8:09 Third Quarter
13 Wed 1:07 5.2 1:33 4.3 7:16 0.5 7:29 0.8 6:15 8:09 Third Quarter
14 Thu 2:01 5.0 2:29 4.4 8:10 0.8 8:32 1.1 6:14 8:10 Third Quarter
15 Fri 2:53 4.9 3:22 4.6 9:07 1.0 9:41 1.3 6:14 8:11 Third Quarter
16 Sat 3:44 4.8 4:13 4.9 10:01 1.1 10:43 1.4 6:13 8:12 Waning Crescent
17 Sun 4:34 4.8 5:00 5.1 10:48 1.1 11:32 1.3 6:12 8:12 Waning Crescent
18 Mon 5:20 4.8 5:43 5.4 11:29 1.0     6:12 8:13 Waning Crescent
19 Tue 6:04 4.8 6:22 5.5 12:14 1.1 12:08 0.9 6:11 8:14 Waning Crescent
20 Wed 6:46 4.8 7:01 5.6 12:55 0.9 12:46 0.7 6:11 8:15 New Moon
21 Thu 7:27 4.8 7:39 5.7 1:35 0.8 1:26 0.6 6:10 8:15 New Moon
22 Fri 8:06 4.7 8:17 5.7 2:15 0.6 2:06 0.4 6:09 8:16 New Moon
23 Sat 8:45 4.6 8:55 5.6 2:55 0.5 2:46 0.3 6:09 8:17 New Moon
24 Sun 9:25 4.5 9:34 5.6 3:35 0.4 3:27 0.3 6:09 8:17 Waxing Crescent
25 Mon 10:06 4.3 10:17 5.5 4:16 0.4 4:08 0.3 6:08 8:18 Waxing Crescent
26 Tue 10:55 4.3 11:05 5.5 4:59 0.4 4:52 0.4 6:08 8:19 Waxing Crescent
27 Wed 11:52 4.3     5:45 0.5 5:41 0.5 6:07 8:19 Waxing Crescent
28 Thu 12:01 5.5 12:53 4.5 6:36 0.5 6:36 0.7 6:07 8:20 First Quarter
29 Fri 12:59 5.5 1:52 4.9 7:29 0.6 7:37 0.8 6:06 8:20 First Quarter
30 Sat 1:57 5.6 2:49 5.3 8:26 0.6 8:44 0.9 6:06 8:21 First Quarter
31 Sun 2:56 5.6 3:47 5.8 9:27 0.5 9:56 0.8 6:06 8:22 Waxing Gibbous
Date High Low Sun Moon
AM ft PM ft AM ft PM ft Rise Set

 

June 2020

Date High Low Sun Moon
AM ft PM ft AM ft PM ft Rise Set
1 Mon 3:56 5.6 4:44 6.2 10:27 0.4 11:02 0.5 6:06 8:22 Waxing Gibbous
2 Tue 4:56 5.6 5:39 6.6 11:22 0.1     6:05 8:23 Waxing Gibbous
3 Wed 5:53 5.6 6:32 6.8 12:00 0.2 12:14 -0.1 6:05 8:23 Waxing Gibbous
4 Thu 6:48 5.5 7:25 6.9 12:56 0.0 1:05 -0.2 6:05 8:24 Full Moon
5 Fri 7:42 5.4 8:17 6.8 1:50 -0.2 1:56 -0.3 6:05 8:25 Full Moon
6 Sat 8:34 5.3 9:07 6.6 2:42 -0.3 2:46 -0.4 6:05 8:25 Full Moon
7 Sun 9:24 5.0 9:56 6.3 3:32 -0.3 3:35 -0.3 6:04 8:26 Waning Gibbous
8 Mon 10:14 4.8 10:46 5.9 4:20 -0.1 4:23 0.0 6:04 8:26 Waning Gibbous
9 Tue 11:07 4.6 11:39 5.6 5:07 0.1 5:11 0.3 6:04 8:26 Waning Gibbous
10 Wed     12:05 4.5 5:54 0.3 6:01 0.7 6:04 8:27 Waning Gibbous
11 Thu 12:32 5.3 1:02 4.5 6:41 0.6 6:53 1.1 6:04 8:27 Third Quarter
12 Fri 1:23 5.1 1:53 4.7 7:27 0.9 7:48 1.4 6:04 8:28 Third Quarter
13 Sat 2:11 4.9 2:42 4.9 8:13 1.1 8:50 1.6 6:04 8:28 Third Quarter
14 Sun 2:58 4.8 3:29 5.1 9:02 1.2 9:54 1.7 6:04 8:28 Third Quarter
15 Mon 3:46 4.7 4:16 5.3 9:53 1.2 10:51 1.6 6:04 8:29 Waning Crescent
16 Tue 4:35 4.7 5:01 5.4 10:42 1.1 11:38 1.4 6:05 8:29 Waning Crescent
17 Wed 5:22 4.7 5:45 5.6 11:27 1.0     6:05 8:29 Waning Crescent
18 Thu 6:07 4.7 6:27 5.7 12:22 1.2 12:09 0.8 6:05 8:30 Waning Crescent
19 Fri 6:51 4.7 7:09 5.8 1:04 1.0 12:52 0.6 6:05 8:30 New Moon
20 Sat 7:35 4.7 7:52 5.9 1:48 0.8 1:35 0.4 6:05 8:30 New Moon
21 Sun 8:19 4.7 8:34 5.9 2:32 0.6 2:19 0.2 6:05 8:30 New Moon
22 Mon 9:03 4.6 9:16 6.0 3:16 0.4 3:04 0.2 6:06 8:31 New Moon
23 Tue 9:49 4.6 10:00 6.0 3:59 0.3 3:49 0.2 6:06 8:31 Waxing Crescent
24 Wed 10:40 4.7 10:48 5.9 4:43 0.2 4:36 0.3 6:06 8:31 Waxing Crescent
25 Thu 11:37 4.8 11:42 5.8 5:29 0.2 5:28 0.4 6:07 8:31 Waxing Crescent
26 Fri     12:37 5.0 6:17 0.3 6:23 0.6 6:07 8:31 First Quarter
27 Sat 12:41 5.7 1:35 5.4 7:08 0.3 7:24 0.8 6:07 8:31 First Quarter
28 Sun 1:39 5.6 2:31 5.7 8:02 0.4 8:29 0.9 6:08 8:31 First Quarter
29 Mon 2:36 5.5 3:28 6.0 9:01 0.5 9:40 0.9 6:08 8:31 Waxing Gibbous
30 Tue 3:36 5.4 4:25 6.3 10:03 0.4 10:48 0.7 6:08 8:31 Waxing Gibbous
Date High Low Sun Moon
AM ft PM ft AM ft PM ft Rise Set

 

More tide charts from US Harbors